Time;durP1;ratioP1;P1;durP2;ratioP2;P2;SDS_P1;SDS_P2;PMS_P1;PMS_P2;Temp;Humidity;BMP_temperature;BMP_pressure;BME280_temperature;BME280_humidity;BME280_pressure;Samples;Min_cycle;Max_cycle;Signal;HPM_P1;HPM_P2
2022/12/13 00:01:15;;;;;;;38.00;14.30;;;-3.50;99.90;;;;;;4205624;28;20044;-86
2022/12/13 00:03:17;;;;;;;39.13;13.85;;;-2.50;99.90;;;;;;4223697;28;20035;-86
2022/12/13 00:05:17;;;;;;;42.10;14.50;;;-2.70;99.90;;;;;;4205988;28;20131;-86
2022/12/13 00:07:23;;;;;;;34.00;13.27;;;-2.80;99.90;;;;;;4222769;28;20047;-86
2022/12/13 00:09:26;;;;;;;43.92;14.43;;;-2.50;99.90;;;;;;4222803;28;20044;-86
2022/12/13 00:11:28;;;;;;;37.83;13.57;;;-1.90;99.90;;;;;;4205527;28;20459;-86
2022/12/13 00:13:35;;;;;;;37.00;13.43;;;-1.40;99.90;;;;;;4233725;28;20097;-86
2022/12/13 00:15:37;;;;;;;37.10;14.10;;;-2.90;99.90;;;;;;4240393;28;20530;-86
2022/12/13 00:17:39;;;;;;;36.75;13.20;;;-2.20;99.90;;;;;;4222393;28;20044;-86
2022/12/13 00:19:41;;;;;;;36.00;14.05;;;-4.10;99.90;;;;;;4222235;28;20508;-86
2022/12/13 00:21:43;;;;;;;36.08;13.48;;;-1.70;99.90;;;;;;4239020;28;20048;-86
2022/12/13 00:23:48;;;;;;;34.00;13.48;;;-1.20;99.90;;;;;;4239234;28;20047;-86
2022/12/13 00:26:00;;;;;;;31.42;13.02;;;-1.20;99.90;;;;;;4221896;28;20044;-86
2022/12/13 00:28:02;;;;;;;37.38;13.55;;;-2.80;99.90;;;;;;4238570;28;20875;-86
2022/12/13 00:30:05;;;;;;;42.38;14.75;;;-2.80;99.90;;;;;;4238821;28;20040;-86
2022/12/13 00:32:07;;;;;;;35.17;13.40;;;-2.90;99.90;;;;;;4237432;28;20101;-85
2022/12/13 00:34:09;;;;;;;43.85;14.63;;;-1.90;99.90;;;;;;4222359;28;20055;-85
2022/12/13 00:36:14;;;;;;;33.83;13.95;;;-2.80;99.90;;;;;;4222720;28;20535;-85
2022/12/13 00:38:16;;;;;;;31.00;13.07;;;-1.60;99.90;;;;;;4222875;28;20576;-85
2022/12/13 00:40:20;;;;;;;35.22;13.52;;;-1.40;99.90;;;;;;4223938;28;20048;-86
2022/12/13 00:42:23;;;;;;;34.75;12.95;;;-2.90;99.90;;;;;;4222915;28;20051;-85
2022/12/13 00:44:26;;;;;;;34.72;13.40;;;-2.40;99.90;;;;;;4223817;28;20047;-86
2022/12/13 00:46:32;;;;;;;35.33;13.00;;;-1.90;99.90;;;;;;4206232;28;20444;-85
2022/12/13 00:48:35;;;;;;;37.33;14.18;;;-1.70;99.90;;;;;;4206193;28;20052;-85
2022/12/13 00:50:37;;;;;;;30.98;12.60;;;-3.00;99.90;;;;;;4230204;28;20036;-86
2022/12/13 00:52:45;;;;;;;39.47;13.27;;;-3.00;99.90;;;;;;4224963;28;20044;-86
2022/12/13 00:54:47;;;;;;;38.35;13.32;;;-3.00;99.90;;;;;;4242140;28;20050;-86
2022/12/13 00:56:50;;;;;;;34.00;12.93;;;-1.80;99.90;;;;;;4224758;28;20105;-86
2022/12/13 00:58:54;;;;;;;32.97;13.05;;;-3.10;99.90;;;;;;4225133;28;20532;-86
2022/12/13 01:01:10;;;;;;;31.27;11.55;;;-3.00;99.90;;;;;;4242884;28;20097;-86
2022/12/13 01:03:19;;;;;;;38.88;13.40;;;-3.10;99.90;;;;;;4224676;28;20682;-86
2022/12/13 01:05:21;;;;;;;36.08;12.88;;;-3.10;99.90;;;;;;4240352;28;20047;-86
2022/12/13 01:07:24;;;;;;;35.47;12.90;;;-3.00;99.90;;;;;;4230043;28;20048;-86
2022/12/13 01:09:28;;;;;;;33.13;12.98;;;-3.10;99.90;;;;;;4224403;28;20056;-86
2022/12/13 01:11:32;;;;;;;31.90;13.65;;;-1.60;99.90;;;;;;4224780;28;20056;-86
2022/12/13 01:13:37;;;;;;;32.65;13.48;;;-3.70;99.90;;;;;;4208101;28;20053;-86
2022/12/13 01:15:41;;;;;;;34.65;12.45;;;-2.40;99.90;;;;;;4223706;28;20152;-86
2022/12/13 01:17:46;;;;;;;37.00;12.73;;;-3.60;99.90;;;;;;4208042;28;20056;-86
2022/12/13 01:19:48;;;;;;;37.38;13.10;;;-3.40;99.90;;;;;;4224382;28;20451;-86
2022/12/13 01:21:57;;;;;;;33.65;12.90;;;-2.70;99.90;;;;;;4225973;28;20048;-86
2022/12/13 01:24:05;;;;;;;33.90;13.68;;;-3.20;99.90;;;;;;4224355;28;20044;-86
2022/12/13 01:26:13;;;;;;;31.17;13.10;;;-3.10;99.90;;;;;;4207806;28;20056;-86
2022/12/13 01:28:18;;;;;;;39.28;13.93;;;-3.10;99.90;;;;;;4225448;28;20047;-86
2022/12/13 01:30:23;;;;;;;33.92;13.30;;;-3.30;99.90;;;;;;4224847;28;20428;-86
2022/12/13 01:32:26;;;;;;;32.10;12.95;;;-3.30;99.90;;;;;;4227004;28;20036;-86
2022/12/13 01:34:30;;;;;;;35.42;13.73;;;-2.60;99.90;;;;;;4240529;28;20044;-86
2022/12/13 01:36:35;;;;;;;38.53;13.48;;;-3.10;99.90;;;;;;4225187;28;20551;-86
2022/12/13 01:38:41;;;;;;;34.38;13.52;;;-4.40;99.90;;;;;;4243247;27;20079;-86
2022/12/13 01:40:48;;;;;;;35.00;15.43;;;-3.40;99.90;;;;;;4241535;28;20043;-84
2022/12/13 01:42:51;;;;;;;32.75;13.88;;;-3.90;99.90;;;;;;4232411;28;20040;-84
2022/12/13 01:45:32;;;;;;;34.80;13.45;;;-3.50;99.90;;;;;;4207693;28;20532;-86
2022/12/13 01:47:39;;;;;;;31.73;11.50;;;-3.40;99.90;;;;;;4191394;28;20080;-85
2022/12/13 01:49:41;;;;;;;30.67;12.52;;;-3.50;99.90;;;;;;4207596;28;20075;-85
2022/12/13 01:51:54;;;;;;;32.85;12.45;;;-1.80;99.90;;;;;;4224865;28;20079;-85
2022/12/13 01:54:09;;;;;;;35.15;12.32;;;-2.80;99.90;;;;;;4209624;28;20122;-86
2022/12/13 01:56:26;;;;;;;31.25;12.45;;;-3.60;99.90;;;;;;4236209;28;20082;-85
2022/12/13 01:58:30;;;;;;;29.67;11.90;;;-3.50;99.90;;;;;;4235014;28;20039;-85
2022/12/13 02:00:36;;;;;;;34.70;12.98;;;-4.70;99.90;;;;;;4234442;28;20106;-85
2022/12/13 02:02:40;;;;;;;36.65;13.15;;;-3.60;99.90;;;;;;4215553;28;20086;-85
2022/12/13 02:04:55;;;;;;;35.13;12.55;;;-2.10;99.90;;;;;;4208704;28;20077;-85
2022/12/13 02:06:57;;;;;;;34.10;12.70;;;-3.60;99.90;;;;;;4225606;28;20079;-85
2022/12/13 02:09:01;;;;;;;32.40;12.23;;;-3.50;99.90;;;;;;4224708;28;20131;-85
2022/12/13 02:11:09;;;;;;;34.47;12.85;;;-3.80;99.90;;;;;;4224388;28;20097;-85
2022/12/13 02:13:15;;;;;;;30.98;11.65;;;-5.00;99.90;;;;;;4207394;28;20052;-85
2022/12/13 02:15:22;;;;;;;31.52;11.18;;;-5.20;99.90;;;;;;4223824;28;20512;-86
2022/12/13 02:17:43;;;;;;;31.08;11.50;;;-3.80;99.90;;;;;;4208265;28;20086;-85
2022/12/13 02:20:21;;;;;;;32.03;12.35;;;-3.70;99.90;;;;;;4223241;28;20075;-85
2022/12/13 02:22:42;;;;;;;40.40;11.65;;;-3.80;99.90;;;;;;4225635;28;20074;-85
2022/12/13 02:25:04;;;;;;;30.80;11.95;;;-3.60;99.90;;;;;;4242639;28;20123;-85
2022/12/13 02:27:10;;;;;;;34.97;12.55;;;-4.50;99.90;;;;;;4224762;28;20546;-85
2022/12/13 02:30:11;;;;;;;31.67;12.40;;;-4.80;99.90;;;;;;4225840;28;20431;-86
2022/12/13 02:32:38;;;;;;;39.00;14.38;;;-3.60;99.90;;;;;;4242622;28;20043;-86
2022/12/13 02:35:09;;;;;;;28.33;11.20;;;-3.70;99.90;;;;;;4238637;28;20048;-85
2022/12/13 02:37:31;;;;;;;36.88;13.70;;;-3.70;99.90;;;;;;4216054;28;20056;-85
2022/12/13 02:39:46;;;;;;;32.40;11.63;;;-3.40;99.90;;;;;;4226357;28;20052;-85
2022/12/13 02:41:56;;;;;;;29.30;11.63;;;-2.40;99.90;;;;;;4208801;28;20044;-85
2022/12/13 02:44:21;;;;;;;38.53;13.27;;;-4.90;99.90;;;;;;4208804;28;20076;-85
2022/12/13 02:46:29;;;;;;;32.78;11.82;;;-3.40;99.90;;;;;;4216360;28;20543;-85
2022/12/13 02:48:37;;;;;;;26.38;11.13;;;-3.80;99.90;;;;;;4208580;28;20049;-85
2022/12/13 02:50:47;;;;;;;37.20;12.88;;;-3.60;99.90;;;;;;4229807;28;20046;-85
2022/12/13 02:52:52;;;;;;;40.60;13.25;;;-3.70;99.90;;;;;;4214517;28;20577;-85
2022/12/13 02:54:59;;;;;;;28.75;12.05;;;-3.70;99.90;;;;;;4224741;28;20112;-85
2022/12/13 02:57:03;;;;;;;30.85;12.35;;;-4.00;99.90;;;;;;4224593;28;20467;-86
2022/12/13 02:59:13;;;;;;;31.35;12.82;;;-3.80;99.90;;;;;;4224457;28;20044;-85
2022/12/13 03:01:39;;;;;;;33.03;12.38;;;-3.90;99.90;;;;;;4224679;28;20087;-85
2022/12/13 03:04:13;;;;;;;32.38;12.77;;;-3.70;99.90;;;;;;4207490;28;20048;-85
2022/12/13 03:07:05;;;;;;;31.58;12.57;;;-3.70;99.90;;;;;;4207447;28;20063;-85
2022/12/13 03:09:30;;;;;;;29.48;11.77;;;-3.80;99.90;;;;;;4190670;28;20144;-86
2022/12/13 03:14:19;;;;;;;31.58;12.18;;;-3.80;99.90;;;;;;4242242;28;20059;-85
2022/12/13 03:16:42;;;;;;;29.58;12.20;;;-3.70;99.90;;;;;;4236019;28;20052;-85
2022/12/13 03:18:46;;;;;;;34.92;12.57;;;-3.80;99.90;;;;;;4211939;28;20044;-85
2022/12/13 03:20:59;;;;;;;33.78;13.48;;;-3.70;99.90;;;;;;4214559;28;20048;-85
2022/12/13 03:23:04;;;;;;;34.83;11.52;;;-3.80;99.90;;;;;;4230279;28;20065;-85
2022/12/13 03:25:05;;;;;;;28.55;11.30;;;-3.40;99.90;;;;;;4213662;28;20040;-85
2022/12/13 03:27:07;;;;;;;31.85;12.40;;;-3.90;99.90;;;;;;4230968;28;20101;-85
2022/12/13 03:29:09;;;;;;;34.67;12.13;;;-3.70;99.90;;;;;;4230609;28;20077;-85
2022/12/13 03:31:10;;;;;;;35.67;13.27;;;-3.90;99.90;;;;;;4209780;28;20045;-85
2022/12/13 03:33:18;;;;;;;39.03;13.68;;;-5.10;99.90;;;;;;4208649;28;20075;-85
2022/12/13 03:35:21;;;;;;;32.87;12.37;;;-2.10;99.90;;;;;;4223984;28;20126;-85
2022/12/13 03:37:24;;;;;;;33.10;12.10;;;-3.90;99.90;;;;;;4224252;28;20044;-84
2022/12/13 03:39:29;;;;;;;32.55;12.18;;;-3.90;99.90;;;;;;4225021;28;20047;-85
2022/12/13 03:41:36;;;;;;;38.88;13.25;;;-3.10;99.90;;;;;;4226722;28;20373;-84
2022/12/13 03:43:53;;;;;;;30.40;11.98;;;-3.20;99.90;;;;;;4224503;28;20036;-85
2022/12/13 03:45:56;;;;;;;34.05;12.45;;;-4.00;99.90;;;;;;4209215;28;20075;-86
2022/12/13 03:47:59;;;;;;;35.70;13.32;;;-2.10;99.90;;;;;;4208678;28;20064;-85
2022/12/13 03:50:10;;;;;;;35.67;13.20;;;-4.00;99.90;;;;;;4210232;28;20058;-86
2022/12/13 03:52:23;;;;;;;36.83;12.65;;;-3.80;99.90;;;;;;4242628;28;20496;-83
2022/12/13 03:54:28;;;;;;;36.92;13.45;;;-3.90;99.90;;;;;;4241356;28;20040;-84
2022/12/13 03:56:33;;;;;;;35.40;12.18;;;-4.00;99.90;;;;;;4224178;28;20070;-85
2022/12/13 03:58:40;;;;;;;36.15;11.68;;;-4.00;99.90;;;;;;4224456;28;20104;-84
2022/12/13 04:00:43;;;;;;;35.72;12.38;;;-3.30;99.90;;;;;;4243171;27;20074;-84
2022/12/13 04:02:51;;;;;;;30.45;12.73;;;-3.90;99.90;;;;;;4223878;28;20536;-83
2022/12/13 04:04:57;;;;;;;29.00;12.13;;;-4.30;99.90;;;;;;4215058;28;20036;-83
2022/12/13 04:07:03;;;;;;;32.50;13.07;;;-3.90;99.90;;;;;;4223909;28;20044;-83
2022/12/13 04:09:04;;;;;;;35.22;12.20;;;-3.90;99.90;;;;;;4224711;28;20447;-84
2022/12/13 04:13:45;;;;;;;28.02;11.45;;;-4.00;99.90;;;;;;4225018;28;20052;-84
2022/12/13 04:15:48;;;;;;;32.63;13.95;;;-4.00;99.90;;;;;;4207351;28;20048;-84
2022/12/13 04:17:55;;;;;;;31.42;11.30;;;-5.30;99.90;;;;;;4224070;28;20044;-84
2022/12/13 04:20:06;;;;;;;35.67;12.35;;;-2.30;99.90;;;;;;4207520;28;20053;-84
2022/12/13 04:22:08;;;;;;;26.42;10.77;;;-3.70;99.90;;;;;;4222789;28;20052;-85
2022/12/13 04:24:12;;;;;;;31.48;12.30;;;-2.50;99.90;;;;;;4221969;28;20044;-84
2022/12/13 04:26:13;;;;;;;32.85;12.05;;;-2.50;99.90;;;;;;4207818;28;20061;-85
2022/12/13 04:28:14;;;;;;;35.15;12.48;;;-5.00;99.90;;;;;;4206261;28;20060;-84
2022/12/13 04:30:18;;;;;;;29.25;10.93;;;-3.60;99.90;;;;;;4205797;28;20112;-86
2022/12/13 04:32:25;;;;;;;31.27;12.63;;;-4.00;99.90;;;;;;4222031;28;20044;-84
2022/12/13 04:34:27;;;;;;;29.88;12.93;;;-3.10;99.90;;;;;;4205779;28;20044;-84
2022/12/13 04:36:28;;;;;;;31.85;11.93;;;-3.40;99.90;;;;;;4205863;28;20076;-84
2022/12/13 04:38:31;;;;;;;30.77;10.95;;;-3.90;99.90;;;;;;4205990;28;20063;-85
2022/12/13 04:40:33;;;;;;;28.65;12.05;;;-4.00;99.90;;;;;;4222419;28;20103;-84
2022/12/13 04:42:36;;;;;;;25.20;11.27;;;-4.10;99.90;;;;;;4232014;28;20052;-85
2022/12/13 04:44:41;;;;;;;27.63;10.73;;;-2.30;99.90;;;;;;4230773;28;20048;-84
2022/12/13 04:46:45;;;;;;;27.77;11.23;;;-2.60;99.90;;;;;;4206083;28;20052;-85
2022/12/13 04:48:50;;;;;;;31.67;11.00;;;-4.00;99.90;;;;;;4222960;28;20083;-84
2022/12/13 04:50:53;;;;;;;30.83;11.68;;;-3.30;99.90;;;;;;4205008;28;20127;-84
2022/12/13 04:52:56;;;;;;;30.52;11.32;;;-3.90;99.90;;;;;;4206633;28;20052;-84
2022/12/13 04:54:59;;;;;;;31.10;12.45;;;-4.30;99.90;;;;;;4223577;28;20128;-85
2022/12/13 04:57:07;;;;;;;34.00;12.85;;;-4.00;99.90;;;;;;4205896;28;20080;-84
2022/12/13 04:59:11;;;;;;;26.42;11.27;;;-4.10;99.90;;;;;;4205878;28;20827;-84
2022/12/13 05:01:17;;;;;;;24.00;10.35;;;-4.10;99.90;;;;;;4225160;28;20506;-84
2022/12/13 05:03:20;;;;;;;27.45;12.23;;;-2.40;99.90;;;;;;4205732;28;20059;-85
2022/12/13 05:05:22;;;;;;;28.30;13.10;;;-3.70;99.90;;;;;;4204979;28;20078;-85
2022/12/13 05:07:28;;;;;;;27.42;10.68;;;-2.60;99.90;;;;;;4222288;28;20044;-85
2022/12/13 05:09:35;;;;;;;32.50;12.48;;;-4.10;99.90;;;;;;4205496;28;20051;-85
2022/12/13 05:11:37;;;;;;;26.70;11.25;;;-3.40;99.90;;;;;;4206052;28;20520;-84
2022/12/13 05:13:41;;;;;;;23.55;10.68;;;-2.30;99.90;;;;;;4222786;28;20089;-84
2022/12/13 05:15:44;;;;;;;28.15;12.00;;;-5.10;99.90;;;;;;4222281;28;20048;-84
2022/12/13 05:17:51;;;;;;;27.48;10.95;;;-4.10;99.90;;;;;;4223848;28;20067;-84
2022/12/13 05:20:01;;;;;;;33.88;12.25;;;-4.10;99.90;;;;;;4205972;28;20108;-84
2022/12/13 05:22:02;;;;;;;26.05;11.10;;;-4.00;99.90;;;;;;4205103;28;20060;-84
2022/12/13 05:24:05;;;;;;;32.58;10.95;;;-4.60;99.90;;;;;;4205450;28;20079;-84
2022/12/13 05:26:08;;;;;;;29.30;11.50;;;-5.10;99.90;;;;;;4223334;28;20048;-84
2022/12/13 05:28:12;;;;;;;30.08;12.00;;;-4.00;99.90;;;;;;4222543;28;20052;-83
2022/12/13 05:30:15;;;;;;;24.63;10.15;;;-5.00;99.90;;;;;;4205804;28;20828;-84
2022/12/13 05:32:22;;;;;;;28.63;11.68;;;-3.90;99.90;;;;;;4222017;28;20072;-84
2022/12/13 05:34:27;;;;;;;29.70;11.70;;;-3.90;99.90;;;;;;4224733;28;20040;-84
2022/12/13 05:36:30;;;;;;;35.15;11.70;;;-4.20;99.90;;;;;;4208677;28;20044;-84
2022/12/13 05:38:35;;;;;;;27.40;10.23;;;-4.10;99.90;;;;;;4208753;28;20105;-84
2022/12/13 05:40:39;;;;;;;27.25;11.50;;;-4.10;99.90;;;;;;4208207;28;20066;-83
2022/12/13 05:42:41;;;;;;;30.60;13.25;;;-2.60;99.90;;;;;;4208465;28;20052;-84
2022/12/13 05:44:44;;;;;;;31.35;10.82;;;-4.20;99.90;;;;;;4226087;28;20501;-84
2022/12/13 05:46:50;;;;;;;24.38;10.90;;;-4.20;99.90;;;;;;4209708;28;20059;-84
2022/12/13 05:48:53;;;;;;;35.50;12.35;;;-4.00;99.90;;;;;;4227533;28;20069;-83
2022/12/13 05:50:57;;;;;;;31.42;12.40;;;-4.30;99.90;;;;;;4209357;28;20102;-84
2022/12/13 05:52:59;;;;;;;33.47;11.82;;;-4.20;99.90;;;;;;4225555;28;20467;-84
2022/12/13 05:55:03;;;;;;;31.30;11.88;;;-4.20;99.90;;;;;;4242270;28;20396;-84
2022/12/13 05:57:11;;;;;;;29.00;11.40;;;-4.20;99.90;;;;;;4226688;28;20103;-84
2022/12/13 05:59:20;;;;;;;32.35;11.70;;;-4.30;99.90;;;;;;4229065;28;20081;-83
2022/12/13 06:01:23;;;;;;;28.05;11.52;;;-4.20;99.90;;;;;;4223990;28;20067;-84
2022/12/13 06:03:28;;;;;;;29.08;11.32;;;-4.40;99.90;;;;;;4228316;28;20099;-83
2022/12/13 06:05:33;;;;;;;30.70;11.98;;;-4.50;99.90;;;;;;4245815;28;20108;-85
2022/12/13 06:07:35;;;;;;;32.33;12.15;;;-3.60;99.90;;;;;;4231231;28;20135;-83
2022/12/13 06:09:38;;;;;;;32.58;12.23;;;-3.00;99.90;;;;;;4230570;28;20052;-84
2022/12/13 06:11:40;;;;;;;31.10;12.52;;;-4.40;99.90;;;;;;4246715;28;20044;-84
2022/12/13 06:13:44;;;;;;;29.85;11.77;;;-4.50;99.90;;;;;;4228771;28;20052;-84
2022/12/13 06:15:46;;;;;;;28.48;11.50;;;-4.50;99.90;;;;;;4245481;28;20073;-85
2022/12/13 06:17:49;;;;;;;23.88;11.45;;;-5.90;99.90;;;;;;4226419;28;20052;-85
2022/12/13 06:20:04;;;;;;;29.60;11.43;;;-3.90;99.90;;;;;;4227421;28;20051;-85
2022/12/13 06:22:06;;;;;;;31.27;12.07;;;-4.50;99.90;;;;;;4210285;28;20048;-84
2022/12/13 06:24:17;;;;;;;32.55;12.00;;;-6.30;99.90;;;;;;4210743;28;20048;-84
2022/12/13 06:26:24;;;;;;;35.55;12.88;;;-5.80;99.90;;;;;;4226323;28;20440;-84
2022/12/13 06:28:29;;;;;;;26.45;11.50;;;-4.60;99.90;;;;;;4228710;28;20051;-85
2022/12/13 06:30:38;;;;;;;28.90;11.63;;;-3.60;99.90;;;;;;4227720;28;20077;-84
2022/12/13 06:32:55;;;;;;;30.42;12.07;;;-6.00;99.90;;;;;;4227453;28;20040;-84
2022/12/13 06:35:10;;;;;;;27.00;11.07;;;-4.50;99.90;;;;;;4235892;28;20047;-85
2022/12/13 06:37:14;;;;;;;39.47;12.95;;;-4.60;99.90;;;;;;4213226;28;20040;-84
2022/12/13 06:39:21;;;;;;;33.35;12.70;;;-4.60;99.90;;;;;;4211080;28;20045;-84
2022/12/13 06:41:23;;;;;;;33.53;12.90;;;-4.50;99.90;;;;;;4210256;28;20045;-85
2022/12/13 06:43:34;;;;;;;31.42;13.23;;;-4.70;99.90;;;;;;4211564;28;20059;-85
2022/12/13 06:45:42;;;;;;;31.88;12.32;;;-4.60;99.90;;;;;;4226861;28;20040;-85
2022/12/13 06:47:49;;;;;;;36.53;11.75;;;-4.50;99.90;;;;;;4210429;28;20088;-84
2022/12/13 06:49:52;;;;;;;31.23;11.93;;;-4.50;99.90;;;;;;4210145;28;20048;-83
2022/12/13 06:51:56;;;;;;;26.50;11.77;;;-4.60;99.90;;;;;;4228076;28;20040;-84
2022/12/13 06:54:03;;;;;;;32.97;12.63;;;-4.40;99.90;;;;;;4210158;28;20051;-84
2022/12/13 06:56:13;;;;;;;30.55;12.05;;;-3.70;99.90;;;;;;4209717;28;20052;-84
2022/12/13 06:58:20;;;;;;;26.70;10.93;;;-5.40;99.90;;;;;;4210430;28;20048;-84
2022/12/13 07:00:23;;;;;;;30.27;11.68;;;-4.50;99.90;;;;;;4210368;28;20045;-84
2022/12/13 07:02:33;;;;;;;35.67;12.55;;;-6.00;99.90;;;;;;4226780;28;20052;-84
2022/12/13 07:04:38;;;;;;;25.98;11.38;;;-4.90;99.90;;;;;;4227679;28;20497;-84
2022/12/13 07:06:41;;;;;;;31.77;12.23;;;-4.50;99.90;;;;;;4228057;28;20040;-84
2022/12/13 07:08:49;;;;;;;33.25;13.13;;;-4.50;99.90;;;;;;4209847;28;20048;-84
2022/12/13 07:10:54;;;;;;;30.33;10.82;;;-3.90;99.90;;;;;;4234609;28;20086;-85
2022/12/13 07:13:00;;;;;;;34.10;12.18;;;-4.60;99.90;;;;;;4243227;28;20035;-85
2022/12/13 07:15:05;;;;;;;28.13;12.07;;;-4.60;99.90;;;;;;4243719;28;20525;-84
2022/12/13 07:17:14;;;;;;;31.30;12.48;;;-4.60;99.90;;;;;;4226995;28;20052;-85
2022/12/13 07:19:18;;;;;;;27.92;11.27;;;-4.50;99.90;;;;;;4226318;28;20087;-85
2022/12/13 07:21:22;;;;;;;31.52;12.25;;;-4.60;99.90;;;;;;4244895;28;20047;-85
2022/12/13 07:23:23;;;;;;;33.88;12.38;;;-4.50;99.90;;;;;;4227917;28;20113;-85
2022/12/13 07:25:28;;;;;;;35.83;11.57;;;-2.90;99.90;;;;;;4245728;28;20043;-85
2022/12/13 07:27:33;;;;;;;30.98;13.48;;;-4.50;99.90;;;;;;4242429;28;20040;-85
2022/12/13 07:29:36;;;;;;;28.70;12.07;;;-5.00;99.90;;;;;;4210993;28;20552;-85
2022/12/13 07:31:39;;;;;;;27.27;11.35;;;-4.40;99.90;;;;;;4210151;28;20127;-85
2022/12/13 07:33:43;;;;;;;29.38;11.85;;;-4.40;99.90;;;;;;4226752;28;20044;-85
2022/12/13 07:36:01;;;;;;;35.13;11.27;;;-4.40;99.90;;;;;;4210121;28;20053;-86
2022/12/13 07:38:03;;;;;;;37.22;13.65;;;-4.40;99.90;;;;;;4194037;28;20040;-85
2022/12/13 07:40:06;;;;;;;32.75;12.57;;;-4.10;99.90;;;;;;4240292;28;20074;-87
2022/12/13 07:42:11;;;;;;;32.35;12.00;;;-4.20;99.90;;;;;;4228453;28;20447;-86
2022/12/13 07:44:17;;;;;;;31.70;13.15;;;-4.20;99.90;;;;;;4227201;28;20047;-85
2022/12/13 07:46:24;;;;;;;31.35;11.93;;;-4.10;99.90;;;;;;4244217;28;20072;-86
2022/12/13 07:48:32;;;;;;;34.67;13.50;;;-4.20;99.90;;;;;;4219997;28;20024;-86
2022/12/13 07:50:43;;;;;;;31.70;12.77;;;-2.80;99.90;;;;;;4211642;28;20051;-89
2022/12/13 07:52:50;;;;;;;36.28;15.55;;;-4.30;99.90;;;;;;4211535;28;20052;-84
2022/12/13 07:54:54;;;;;;;33.15;12.98;;;-4.30;99.90;;;;;;4225027;28;20109;-84
2022/12/13 07:57:02;;;;;;;28.77;13.30;;;-4.20;99.90;;;;;;4242740;28;20058;-84
2022/12/13 07:59:07;;;;;;;31.13;12.25;;;-4.00;99.90;;;;;;4243476;28;20090;-85
2022/12/13 08:01:12;;;;;;;31.67;13.18;;;-4.00;99.90;;;;;;4226701;28;20059;-85
2022/12/13 08:03:16;;;;;;;29.70;12.20;;;-4.30;99.90;;;;;;4226557;28;20044;-84
2022/12/13 08:05:20;;;;;;;31.17;12.98;;;-4.20;99.90;;;;;;4245366;28;20054;-85
2022/12/13 08:07:27;;;;;;;30.15;13.10;;;-4.10;99.90;;;;;;4250279;28;20053;-84
2022/12/13 08:09:29;;;;;;;31.27;13.40;;;-4.10;99.90;;;;;;4220166;28;20029;-84
2022/12/13 08:11:41;;;;;;;32.55;12.85;;;-4.10;99.90;;;;;;4217255;28;20063;-84
2022/12/13 08:13:51;;;;;;;38.28;12.93;;;-3.90;99.90;;;;;;4234411;28;20052;-85
2022/12/13 08:16:00;;;;;;;30.95;12.50;;;-3.30;99.90;;;;;;4229150;28;20081;-85
2022/12/13 08:18:03;;;;;;;;;;;-3.90;99.90;;;;;;4227360;28;20050;-85
2022/12/13 08:20:05;;;;;;;45.00;12.00;;;-4.70;99.90;;;;;;4208120;28;20412;-85
2022/12/13 08:22:11;;;;;;;32.10;12.25;;;-5.10;99.90;;;;;;4226640;28;20044;-85
2022/12/13 08:24:13;;;;;;;32.67;13.50;;;-3.70;99.90;;;;;;4206441;28;20052;-85
2022/12/13 08:26:16;;;;;;;32.72;13.73;;;-3.50;99.90;;;;;;4206373;28;20141;-85
2022/12/13 08:28:20;;;;;;;35.17;13.63;;;-2.20;99.90;;;;;;4224157;28;20110;-86
2022/12/13 08:30:23;;;;;;;31.98;13.52;;;-3.50;99.90;;;;;;4205709;28;20130;-85
2022/12/13 08:32:25;;;;;;;34.00;14.32;;;-2.10;99.90;;;;;;4221758;28;20032;-85
2022/12/13 08:34:30;;;;;;;34.03;13.27;;;-3.10;99.90;;;;;;4214885;28;20115;-83
2022/12/13 08:36:32;;;;;;;32.72;12.40;;;-2.80;99.90;;;;;;4221872;28;20459;-85
2022/12/13 08:38:37;;;;;;;34.90;13.07;;;-1.90;99.90;;;;;;4240582;28;20035;-85
2022/12/13 08:40:39;;;;;;;31.38;12.77;;;-2.90;99.90;;;;;;4222242;28;20071;-85
2022/12/13 08:42:41;;;;;;;31.63;13.23;;;-1.20;99.90;;;;;;4242673;28;20043;-85
2022/12/13 08:44:50;;;;;;;29.13;11.68;;;-2.00;99.90;;;;;;4225336;28;20512;-84
2022/12/13 08:46:52;;;;;;;29.25;11.98;;;-2.90;99.90;;;;;;4242150;28;20040;-85
2022/12/13 08:48:54;;;;;;;31.77;12.45;;;-2.20;99.90;;;;;;4221266;28;20583;-84
2022/12/13 08:51:02;;;;;;;34.08;13.25;;;-0.70;99.90;;;;;;4220242;28;20047;-85
2022/12/13 08:53:04;;;;;;;29.70;12.45;;;-2.00;99.90;;;;;;4237603;28;20048;-85
2022/12/13 08:55:05;;;;;;;27.45;12.93;;;-1.80;99.90;;;;;;4237833;28;20036;-85
2022/12/13 08:57:07;;;;;;;28.88;12.13;;;-1.40;99.90;;;;;;4237947;28;20040;-85
2022/12/13 08:59:08;;;;;;;29.25;12.70;;;-1.20;99.90;;;;;;4219788;28;20043;-83
2022/12/13 09:01:11;;;;;;;31.55;13.52;;;-1.00;99.90;;;;;;4231285;28;20040;-86
2022/12/13 09:03:14;;;;;;;36.28;12.60;;;-0.20;99.90;;;;;;4211220;28;20183;-84
2022/12/13 09:05:17;;;;;;;29.40;11.65;;;-1.10;99.90;;;;;;4228182;28;20036;-84
2022/12/13 09:07:19;;;;;;;29.85;11.55;;;-0.60;99.90;;;;;;4221593;28;20040;-85
2022/12/13 09:09:20;;;;;;;27.45;11.20;;;0.40;99.90;;;;;;4213252;28;20059;-84
2022/12/13 09:11:22;;;;;;;28.50;12.18;;;-0.20;99.90;;;;;;4225615;28;20102;-85
2022/12/13 09:13:24;;;;;;;34.83;12.27;;;-0.80;99.90;;;;;;4223553;28;20089;-85
2022/12/13 09:15:27;;;;;;;35.83;13.70;;;-1.40;99.90;;;;;;4224476;28;20139;-84
2022/12/13 09:17:32;;;;;;;35.25;13.45;;;-1.10;99.90;;;;;;4241784;28;20039;-85
2022/12/13 09:19:38;;;;;;;28.27;11.52;;;-1.00;99.90;;;;;;4240948;28;20050;-84
2022/12/13 09:21:39;;;;;;;32.53;11.95;;;-1.40;99.90;;;;;;4234174;28;20327;-85
2022/12/13 09:23:42;;;;;;;27.67;10.55;;;-2.30;99.90;;;;;;4207713;28;20044;-84
2022/12/13 09:25:43;;;;;;;37.28;13.05;;;-2.00;99.90;;;;;;4229054;28;20052;-84
2022/12/13 09:27:44;;;;;;;35.47;13.80;;;-1.00;99.90;;;;;;4213755;28;20131;-84
2022/12/13 09:29:49;;;;;;;33.15;13.43;;;-0.80;99.90;;;;;;4237366;28;20126;-85
2022/12/13 09:31:50;;;;;;;33.35;13.75;;;-0.80;99.90;;;;;;4218218;28;20051;-84
2022/12/13 09:33:54;;;;;;;34.30;13.85;;;0.90;99.90;;;;;;4230322;28;20039;-84
2022/12/13 09:35:54;;;;;;;30.23;12.63;;;-0.60;99.90;;;;;;4216890;28;20037;-83
2022/12/13 09:37:56;;;;;;;26.90;12.75;;;-0.40;99.90;;;;;;4232310;28;20516;-84
2022/12/13 09:39:58;;;;;;;32.17;12.65;;;-0.10;99.90;;;;;;4238971;28;20035;-84
2022/12/13 09:41:59;;;;;;;34.30;13.90;;;0.10;99.90;;;;;;4218081;28;20519;-84
2022/12/13 09:44:06;;;;;;;34.95;13.77;;;0.80;99.90;;;;;;4230668;28;20048;-85
2022/12/13 09:46:22;;;;;;;30.50;12.48;;;-0.40;99.90;;;;;;4218261;28;20036;-85
2022/12/13 09:48:24;;;;;;;32.10;13.57;;;1.20;99.90;;;;;;4217632;28;20052;-85
2022/12/13 09:50:32;;;;;;;30.27;13.00;;;2.70;99.90;;;;;;4218414;28;20522;-84
2022/12/13 09:52:37;;;;;;;27.10;12.63;;;1.10;99.90;;;;;;4220886;28;20048;-85
2022/12/13 09:54:40;;;;;;;33.47;12.60;;;1.00;99.90;;;;;;4233492;28;20036;-84
2022/12/13 09:56:41;;;;;;;33.58;12.70;;;2.60;99.90;;;;;;4226651;28;20048;-85
2022/12/13 09:58:46;;;;;;;28.98;11.88;;;1.10;99.90;;;;;;4225729;28;20127;-86
2022/12/13 10:00:58;;;;;;;31.13;12.88;;;0.80;99.90;;;;;;4217260;28;20087;-86
2022/12/13 10:03:00;;;;;;;28.95;12.50;;;1.90;99.90;;;;;;4206765;28;20044;-86
2022/12/13 10:05:30;;;;;;;26.17;11.85;;;0.50;99.90;;;;;;4222519;28;20040;-86
2022/12/13 10:07:33;;;;;;;26.15;11.80;;;-0.60;99.90;;;;;;4221787;28;20484;-86
2022/12/13 10:09:34;;;;;;;26.73;11.77;;;0.80;99.90;;;;;;4207682;28;20083;-86
2022/12/13 10:11:37;;;;;;;28.13;10.73;;;1.00;99.90;;;;;;4221226;28;20101;-86
2022/12/13 10:14:02;;;;;;;25.10;11.32;;;1.90;99.90;;;;;;4224393;28;20062;-86
2022/12/13 10:16:10;;;;;;;26.63;11.77;;;1.30;99.90;;;;;;4207081;28;20036;-86
2022/12/13 10:18:19;;;;;;;27.52;10.85;;;1.50;99.90;;;;;;4232952;28;20047;-86
2022/12/13 10:20:50;;;;;;;24.83;10.93;;;1.60;99.90;;;;;;4230016;28;20051;-87
2022/12/13 10:23:00;;;;;;;23.65;10.40;;;1.60;99.90;;;;;;4216094;28;20513;-87
2022/12/13 10:25:04;;;;;;;27.27;11.35;;;2.00;99.90;;;;;;4207630;28;20134;-86
2022/12/13 10:27:13;;;;;;;23.63;10.35;;;1.70;99.90;;;;;;4234898;28;20040;-87
2022/12/13 10:29:15;;;;;;;;;;;2.60;99.90;;;;;;4240426;28;20048;-87
2022/12/13 10:31:18;;;;;;;33.42;10.93;;;1.80;99.90;;;;;;4227663;28;19974;-84
2022/12/13 10:33:44;;;;;;;27.60;10.95;;;1.90;99.90;;;;;;4227437;28;20056;-85
2022/12/13 10:36:05;;;;;;;25.65;11.07;;;0.90;99.90;;;;;;4225056;28;20048;-86
2022/12/13 10:38:07;;;;;;;27.98;11.18;;;2.00;99.90;;;;;;4233555;28;20043;-85
2022/12/13 10:40:23;;;;;;;21.45;10.80;;;3.20;99.90;;;;;;4230769;28;20074;-87
2022/12/13 10:42:25;;;;;;;28.45;11.07;;;1.70;99.90;;;;;;4238406;28;20040;-86
2022/12/13 10:44:28;;;;;;;24.38;10.63;;;2.10;99.90;;;;;;4221807;28;20081;-87
2022/12/13 10:46:31;;;;;;;30.42;11.57;;;2.30;99.90;;;;;;4219131;28;20538;-86
2022/12/13 10:48:48;;;;;;;31.60;12.50;;;2.30;99.90;;;;;;4232950;28;20043;-87